createdAt,value
2018-04-02T00:00:22.261Z,4.60
2018-04-02T00:02:49.733Z,4.60
2018-04-02T00:05:17.989Z,4.30
2018-04-02T00:07:45.460Z,4.30
2018-04-02T00:10:12.928Z,4.20
2018-04-02T00:45:06.639Z,4.40
2018-04-02T00:47:35.521Z,4.30
2018-04-02T00:50:04.137Z,4.00
2018-04-02T00:52:31.621Z,4.40
2018-04-02T00:54:59.093Z,4.30
2018-04-02T00:59:56.917Z,4.20
2018-04-02T01:02:24.428Z,4.20
2018-04-02T01:17:18.357Z,4.00
2018-04-02T01:19:45.849Z,4.00
2018-04-02T01:24:45.379Z,3.90
2018-04-02T01:27:14.456Z,4.10
2018-04-02T01:29:43.071Z,4.00
2018-04-02T01:52:05.302Z,3.00
2018-04-02T02:02:00.813Z,3.00
2018-04-02T02:06:57.911Z,3.20
2018-04-02T02:09:27.701Z,3.00
2018-04-02T02:11:57.499Z,3.10
2018-04-02T02:14:26.459Z,3.10
2018-04-02T02:16:54.207Z,2.90
2018-04-02T02:19:22.817Z,2.80
2018-04-02T02:21:50.310Z,2.90
2018-04-02T02:24:17.786Z,2.90
2018-04-02T02:26:47.746Z,2.80
2018-04-02T02:29:16.334Z,2.80
2018-04-02T02:31:46.781Z,2.40
2018-04-02T02:34:17.019Z,2.40
2018-04-02T02:36:45.321Z,2.50
2018-04-02T02:39:12.810Z,2.50
2018-04-02T02:44:11.006Z,2.30
2018-04-02T02:46:41.469Z,2.20
2018-04-02T02:49:08.966Z,2.20
2018-04-02T02:54:07.561Z,2.00
2018-04-02T02:56:37.719Z,2.20
2018-04-02T02:59:05.190Z,2.20
2018-04-02T03:01:33.514Z,2.10
2018-04-02T03:04:02.174Z,2.00
2018-04-02T03:06:29.625Z,2.10
2018-04-02T03:08:59.205Z,1.80
2018-04-02T03:11:27.810Z,1.50
2018-04-02T03:13:55.309Z,1.70
2018-04-02T03:16:23.993Z,1.50
2018-04-02T03:18:52.237Z,1.70
2018-04-02T03:21:19.729Z,1.70
2018-04-02T03:23:49.005Z,1.60
2018-04-02T03:26:16.509Z,1.60
2018-04-02T03:28:44.036Z,1.60
2018-04-02T03:31:12.654Z,1.50
2018-04-02T03:33:40.150Z,1.60
2018-04-02T03:36:07.630Z,1.60
2018-04-02T03:38:36.661Z,1.40
2018-04-02T03:41:04.140Z,1.50
2018-04-02T03:43:31.622Z,1.60
2018-04-02T03:46:00.249Z,1.40
2018-04-02T03:48:27.826Z,1.40
2018-04-02T03:50:56.873Z,1.40
2018-04-02T03:53:25.490Z,1.20
2018-04-02T03:55:52.965Z,1.40
2018-04-02T03:58:20.461Z,1.40
2018-04-02T04:00:48.036Z,1.40
2018-04-02T04:03:16.724Z,1.10
2018-04-02T04:05:45.410Z,1.20
2018-04-02T04:08:14.027Z,1.20
2018-04-02T04:10:41.549Z,1.20
2018-04-02T04:13:10.161Z,1.20
2018-04-02T04:15:37.942Z,1.20
2018-04-02T04:18:05.459Z,1.20
2018-04-02T04:20:34.141Z,1.00
2018-04-02T04:23:02.868Z,1.00
2018-04-02T04:25:32.334Z,1.00
2018-04-02T04:28:00.610Z,1.00
2018-04-02T04:30:29.249Z,0.70
2018-04-02T04:32:56.753Z,0.90
2018-04-02T04:35:25.014Z,0.80
2018-04-02T04:37:52.493Z,0.80
2018-04-02T04:40:20.814Z,0.80
2018-04-02T04:42:48.268Z,0.80
2018-04-02T04:45:15.741Z,0.70
2018-04-02T04:47:43.237Z,0.70
2018-04-02T04:50:12.705Z,0.70
2018-04-02T04:52:41.132Z,0.70
2018-04-02T04:55:08.633Z,0.70
2018-04-02T04:57:36.377Z,0.70
2018-04-02T05:00:03.874Z,0.50
2018-04-02T05:02:31.350Z,0.60
2018-04-02T05:04:59.625Z,0.60
2018-04-02T05:07:27.886Z,0.50
2018-04-02T05:09:55.373Z,0.50
2018-04-02T05:12:22.977Z,0.60
2018-04-02T05:17:20.195Z,0.50
2018-04-02T05:19:47.747Z,0.60
2018-04-02T05:22:16.364Z,0.60
2018-04-02T05:24:43.857Z,0.80
2018-04-02T05:27:12.846Z,1.10
2018-04-02T05:29:40.337Z,1.10
2018-04-02T05:32:08.605Z,2.80
2018-04-02T05:34:37.296Z,3.80
2018-04-02T05:37:05.573Z,4.60
2018-04-02T05:39:33.850Z,4.50
2018-04-02T05:42:02.097Z,5.40
2018-04-02T05:44:29.585Z,5.40
2018-04-02T05:46:57.860Z,6.50
2018-04-02T05:49:26.541Z,7.30
2018-04-02T05:51:54.781Z,8.30
2018-04-02T05:54:23.651Z,8.30
2018-04-02T05:56:54.901Z,8.80
2018-04-02T05:59:22.409Z,8.80
2018-04-02T06:04:19.577Z,8.70
2018-04-02T06:06:47.853Z,9.20
2018-04-02T06:09:16.134Z,9.30
2018-04-02T06:11:44.378Z,9.90
2018-04-02T06:14:11.876Z,9.90
2018-04-02T06:16:39.693Z,10.50
2018-04-02T06:19:07.286Z,10.90
2018-04-02T06:21:35.529Z,10.70
2018-04-02T06:24:03.058Z,10.60
2018-04-02T06:26:30.571Z,11.10
2018-04-02T06:28:58.954Z,11.20
2018-04-02T06:31:27.241Z,10.90
2018-04-02T06:33:55.495Z,10.80
2018-04-02T06:36:23.760Z,10.70
2018-04-02T06:38:51.233Z,10.60
2018-04-02T06:41:18.940Z,10.50
2018-04-02T06:43:46.433Z,10.40
2018-04-02T06:46:13.966Z,10.30
2018-04-02T06:48:41.461Z,10.50
2018-04-02T06:51:08.998Z,11.00
2018-04-02T06:53:36.547Z,11.60
2018-04-02T06:56:04.046Z,11.90
2018-04-02T07:01:06.302Z,12.50
2018-04-02T07:03:33.795Z,13.30
2018-04-02T07:06:02.069Z,13.70
2018-04-02T07:08:30.346Z,14.40
2018-04-02T07:10:58.656Z,15.00
2018-04-02T07:13:26.894Z,15.20
2018-04-02T07:15:55.130Z,15.80
2018-04-02T07:18:22.626Z,15.80
2018-04-02T07:20:50.109Z,16.30
2018-04-02T07:23:17.598Z,17.40
2018-04-02T07:25:45.073Z,17.10
2018-04-02T07:28:12.565Z,17.10
2018-04-02T07:30:40.830Z,18.10
2018-04-02T07:33:08.309Z,18.00
2018-04-02T07:35:35.801Z,18.80
2018-04-02T07:38:03.273Z,18.70
2018-04-02T07:40:30.856Z,18.90
2018-04-02T07:42:58.569Z,19.10
2018-04-02T07:45:26.364Z,19.30
2018-04-02T07:47:54.197Z,19.50
2018-04-02T07:50:21.754Z,19.90
2018-04-02T07:52:49.268Z,19.40
2018-04-02T07:55:16.838Z,16.20
2018-04-02T07:57:45.081Z,15.10
2018-04-02T08:00:12.578Z,15.10
2018-04-02T08:02:40.862Z,15.80
2018-04-02T08:05:08.397Z,15.80
2018-04-02T08:07:36.649Z,17.30
2018-04-02T08:10:04.125Z,17.30
2018-04-02T08:12:31.617Z,15.10
2018-04-02T08:14:59.153Z,14.00
2018-04-02T08:17:27.677Z,12.70
2018-04-02T08:19:55.438Z,12.70
2018-04-02T08:22:22.913Z,14.20
2018-04-02T08:24:50.402Z,15.50
2018-04-02T08:27:17.878Z,14.10
2018-04-02T08:29:46.142Z,12.90
2018-04-02T08:32:14.381Z,12.60
2018-04-02T08:34:41.853Z,12.60
2018-04-02T08:37:10.850Z,14.00
2018-04-02T08:39:38.328Z,14.00
2018-04-02T08:42:06.610Z,13.10
2018-04-02T08:44:34.109Z,13.10
2018-04-02T08:47:01.583Z,13.70
2018-04-02T08:49:29.077Z,13.80
2018-04-02T08:51:57.348Z,13.80
2018-04-02T08:54:25.617Z,13.40
2018-04-02T08:56:53.861Z,13.90
2018-04-02T08:59:21.334Z,13.90
2018-04-02T09:01:48.825Z,13.70
2018-04-02T09:04:16.302Z,14.10
2018-04-02T09:06:43.803Z,14.10
2018-04-02T09:09:11.289Z,13.50
2018-04-02T09:11:39.557Z,13.40
2018-04-02T09:14:07.822Z,13.60
2018-04-02T09:16:35.308Z,13.60
2018-04-02T09:19:03.812Z,13.70
2018-04-02T09:21:31.285Z,13.70
2018-04-02T09:23:58.756Z,13.80
2018-04-02T09:26:26.247Z,14.40
2018-04-02T09:28:54.486Z,14.30
2018-04-02T09:31:21.980Z,14.30
2018-04-02T09:33:50.221Z,14.30
2018-04-02T09:36:17.695Z,14.30
2018-04-02T09:38:45.306Z,14.40
2018-04-02T09:41:12.793Z,14.80
2018-04-02T09:43:40.384Z,14.90
2018-04-02T09:46:08.630Z,14.40
2018-04-02T09:48:36.105Z,14.40
2018-04-02T09:51:05.105Z,14.70
2018-04-02T09:53:32.582Z,14.80
2018-04-02T09:56:00.837Z,14.70
2018-04-02T09:58:29.395Z,14.20
2018-04-02T10:01:00.921Z,14.20
2018-04-02T10:03:34.317Z,14.50
2018-04-02T10:06:03.679Z,15.40
2018-04-02T10:08:31.921Z,16.20
2018-04-02T10:10:59.393Z,16.20
2018-04-02T10:13:26.969Z,14.90
2018-04-02T10:15:55.209Z,15.50
2018-04-02T10:18:22.797Z,15.40
2018-04-02T10:20:51.325Z,15.90
2018-04-02T10:23:18.840Z,15.90
2018-04-02T10:25:47.093Z,15.50
2018-04-02T10:28:14.597Z,15.50
2018-04-02T10:30:42.093Z,15.60
2018-04-02T10:33:09.604Z,15.40
2018-04-02T10:35:37.079Z,16.70
2018-04-02T10:38:04.570Z,16.70
2018-04-02T10:40:32.046Z,17.10
2018-04-02T10:42:59.538Z,17.90
2018-04-02T10:45:27.073Z,16.60
2018-04-02T10:47:55.317Z,17.50
2018-04-02T10:50:22.818Z,17.50
2018-04-02T10:52:51.057Z,18.10
2018-04-02T10:55:18.640Z,18.10
2018-04-02T10:57:46.914Z,18.00
2018-04-02T11:00:15.154Z,17.50
2018-04-02T11:02:42.640Z,17.50
2018-04-02T11:05:10.210Z,17.20
2018-04-02T11:07:38.469Z,16.30
2018-04-02T11:10:05.945Z,16.30
2018-04-02T11:12:34.234Z,16.60
2018-04-02T11:15:01.698Z,16.60
2018-04-02T11:17:29.177Z,17.30
2018-04-02T11:19:56.669Z,17.20
2018-04-02T11:22:24.146Z,16.00
2018-04-02T11:24:52.389Z,16.00
2018-04-02T11:27:19.881Z,16.00
2018-04-02T11:29:48.126Z,15.60
2018-04-02T11:32:15.622Z,15.50
2018-04-02T11:34:43.863Z,15.80
2018-04-02T11:37:11.451Z,15.80
2018-04-02T11:39:39.713Z,16.50
2018-04-02T11:42:07.528Z,16.50
2018-04-02T11:44:35.033Z,16.80
2018-04-02T11:47:03.273Z,17.50
2018-04-02T11:49:30.749Z,17.50
2018-04-02T11:51:58.237Z,17.20
2018-04-02T11:54:26.478Z,16.30
2018-04-02T11:56:53.985Z,16.40
2018-04-02T11:59:21.459Z,16.80
2018-04-02T12:01:48.958Z,17.00
2018-04-02T12:04:16.537Z,17.00
2018-04-02T12:06:44.813Z,16.90
2018-04-02T12:09:13.074Z,17.10
2018-04-02T12:11:40.653Z,17.10
2018-04-02T12:14:08.926Z,17.60
2018-04-02T12:16:37.197Z,17.90
2018-04-02T12:19:06.058Z,17.90
2018-04-02T12:21:33.927Z,17.90
2018-04-02T12:24:02.115Z,17.30
2018-04-02T12:26:29.783Z,17.10
2018-04-02T12:28:58.984Z,17.60
2018-04-02T12:31:27.053Z,17.60
2018-04-02T12:33:54.847Z,18.00
2018-04-02T12:36:22.381Z,17.60
2018-04-02T12:38:50.638Z,17.30
2018-04-02T12:41:18.109Z,17.30
2018-04-02T12:43:45.673Z,18.00
2018-04-02T12:46:13.921Z,17.80
2018-04-02T12:48:41.394Z,17.80
2018-04-02T12:51:08.885Z,17.80
2018-04-02T12:53:37.276Z,17.80
2018-04-02T12:56:04.909Z,17.70
2018-04-02T12:58:33.157Z,18.20
2018-04-02T13:01:00.635Z,18.20
2018-04-02T13:03:28.895Z,17.70
2018-04-02T13:05:56.512Z,17.70
2018-04-02T13:08:24.062Z,17.70
2018-04-02T13:10:51.537Z,17.80
2018-04-02T13:13:19.017Z,18.60
2018-04-02T13:15:46.513Z,18.50
2018-04-02T13:18:14.765Z,18.60
2018-04-02T13:20:42.271Z,18.60
2018-04-02T13:23:09.761Z,18.70
2018-04-02T13:25:37.457Z,17.20
2018-04-02T13:28:05.729Z,16.50
2018-04-02T13:30:33.539Z,16.50
2018-04-02T13:33:01.057Z,17.20
2018-04-02T13:35:29.329Z,17.40
2018-04-02T13:37:57.599Z,16.70
2018-04-02T13:40:25.082Z,16.70
2018-04-02T13:42:52.561Z,16.80
2018-04-02T13:45:20.057Z,16.90
2018-04-02T13:47:47.541Z,16.30
2018-04-02T13:50:15.791Z,17.20
2018-04-02T13:52:43.282Z,17.20
2018-04-02T13:55:10.827Z,16.40
2018-04-02T13:57:39.085Z,16.50
2018-04-02T14:00:06.562Z,16.40
2018-04-02T14:02:34.823Z,16.60
2018-04-02T14:05:02.566Z,16.60
2018-04-02T14:07:30.044Z,16.80
2018-04-02T14:09:57.537Z,17.10
2018-04-02T14:12:25.013Z,17.00
2018-04-02T14:14:52.493Z,17.10
2018-04-02T14:17:19.982Z,17.20
2018-04-02T14:19:48.227Z,17.50
2018-04-02T14:22:15.753Z,17.40
2018-04-02T14:24:43.528Z,17.50
2018-04-02T14:27:11.119Z,18.00
2018-04-02T14:29:38.617Z,18.10
2018-04-02T14:32:06.101Z,18.00
2018-04-02T14:34:33.573Z,17.70
2018-04-02T14:37:01.172Z,17.70
2018-04-02T14:39:29.413Z,18.00
2018-04-02T14:41:57.149Z,17.90
2018-04-02T14:44:24.663Z,18.00
2018-04-02T14:46:52.939Z,18.10
2018-04-02T14:49:21.465Z,18.30
2018-04-02T14:51:48.959Z,18.30
2018-04-02T14:54:16.465Z,18.40
2018-04-02T14:56:43.937Z,18.50
2018-04-02T14:59:11.416Z,18.30
2018-04-02T15:01:38.925Z,18.30
2018-04-02T15:04:06.405Z,18.30
2018-04-02T15:06:33.925Z,18.30
2018-04-02T15:09:02.169Z,18.00
2018-04-02T15:11:29.649Z,17.90
2018-04-02T15:13:57.218Z,17.60
2018-04-02T15:16:25.510Z,17.60
2018-04-02T15:18:53.758Z,17.60
2018-04-02T15:21:21.246Z,17.60
2018-04-02T15:23:48.742Z,17.60
2018-04-02T15:26:16.233Z,17.50
2018-04-02T15:28:43.797Z,17.00
2018-04-02T15:31:12.070Z,17.00
2018-04-02T15:33:40.314Z,17.40
2018-04-02T15:36:07.791Z,17.40
2018-04-02T15:38:36.066Z,17.80
2018-04-02T15:41:03.541Z,17.80
2018-04-02T15:43:31.090Z,17.60
2018-04-02T15:45:58.540Z,17.10
2018-04-02T15:48:26.946Z,17.10
2018-04-02T15:50:55.200Z,17.20
2018-04-02T15:53:23.828Z,17.10
2018-04-02T15:55:51.321Z,17.10
2018-04-02T15:58:18.794Z,17.10
2018-04-02T16:00:46.275Z,17.10
2018-04-02T16:03:14.533Z,16.90
2018-04-02T16:05:42.009Z,16.80
2018-04-02T16:08:09.509Z,16.70
2018-04-02T16:10:37.022Z,16.60
2018-04-02T16:13:04.569Z,16.70
2018-04-02T16:15:32.828Z,16.60
2018-04-02T16:18:00.405Z,16.60
2018-04-02T16:20:28.717Z,16.70
2018-04-02T16:22:56.190Z,16.60
2018-04-02T16:25:23.669Z,16.60
2018-04-02T16:27:51.931Z,16.50
2018-04-02T16:30:19.410Z,16.50
2018-04-02T16:32:48.417Z,16.30
2018-04-02T16:35:16.657Z,16.40
2018-04-02T16:37:44.132Z,16.30
2018-04-02T16:40:11.621Z,16.30
2018-04-02T16:42:39.888Z,16.40
2018-04-02T16:45:08.145Z,16.30
2018-04-02T16:47:35.621Z,16.30
2018-04-02T16:50:03.865Z,16.20
2018-04-02T16:52:31.361Z,16.20
2018-04-02T16:54:59.621Z,16.20
2018-04-02T16:57:27.883Z,16.20
2018-04-02T16:59:55.490Z,16.20
2018-04-02T17:02:23.721Z,16.10
2018-04-02T17:04:51.211Z,16.10
2018-04-02T17:07:18.690Z,16.10
2018-04-02T17:09:46.186Z,16.10
2018-04-02T17:12:13.701Z,16.10
2018-04-02T17:14:41.182Z,16.10
2018-04-02T17:17:08.925Z,16.10
2018-04-02T17:19:36.441Z,16.00
2018-04-02T17:22:04.701Z,15.90
2018-04-02T17:24:32.189Z,15.90
2018-04-02T17:27:00.441Z,15.80
2018-04-02T17:29:27.979Z,15.80
2018-04-02T17:31:56.289Z,15.70
2018-04-02T17:34:24.527Z,15.60
2018-04-02T17:36:52.028Z,15.50
2018-04-02T17:39:20.268Z,15.40
2018-04-02T17:41:48.517Z,15.30
2018-04-02T17:44:16.018Z,15.30
2018-04-02T17:46:43.493Z,15.20
2018-04-02T17:49:11.738Z,15.00
2018-04-02T17:51:39.542Z,15.00
2018-04-02T17:54:08.469Z,14.80
2018-04-02T17:56:36.798Z,14.80
2018-04-02T17:59:05.648Z,14.70
2018-04-02T18:01:33.745Z,14.60
2018-04-02T18:04:01.875Z,14.60
2018-04-02T18:06:29.768Z,14.50
2018-04-02T18:08:58.351Z,14.30
2018-04-02T18:11:26.036Z,14.30
2018-04-02T18:13:54.287Z,14.30
2018-04-02T18:16:21.777Z,14.30
2018-04-02T18:18:50.025Z,14.30
2018-04-02T18:21:17.529Z,14.30
2018-04-02T18:23:45.007Z,14.40
2018-04-02T18:26:12.486Z,14.40
2018-04-02T18:28:39.979Z,14.40
2018-04-02T18:31:07.529Z,14.50
2018-04-02T18:33:35.815Z,14.60
2018-04-02T18:36:04.125Z,14.60
2018-04-02T18:38:32.326Z,14.60
2018-04-02T18:40:59.818Z,14.60
2018-04-02T18:43:28.056Z,14.60
2018-04-02T18:45:55.873Z,14.60
2018-04-02T18:48:23.357Z,14.60
2018-04-02T18:50:51.014Z,14.50
2018-04-02T18:53:18.482Z,14.30
2018-04-02T18:55:45.961Z,14.30
2018-04-02T18:58:13.499Z,14.30
2018-04-02T19:00:41.156Z,14.40
2018-04-02T19:03:08.637Z,14.30
2018-04-02T19:05:36.128Z,14.30
2018-04-02T19:08:04.366Z,14.40
2018-04-02T19:10:31.893Z,14.40
2018-04-02T19:12:59.373Z,14.30
2018-04-02T19:15:26.849Z,14.40
2018-04-02T19:17:54.350Z,14.30
2018-04-02T19:20:21.865Z,14.20
2018-04-02T19:22:49.444Z,14.20
2018-04-02T19:25:17.693Z,14.20
2018-04-02T19:27:45.181Z,14.20
2018-04-02T19:30:13.457Z,14.00
2018-04-02T19:32:41.697Z,14.00
2018-04-02T19:35:09.168Z,14.00
2018-04-02T19:37:36.670Z,14.00
2018-04-02T19:40:04.147Z,14.00
2018-04-02T19:42:31.629Z,14.10
2018-04-02T19:44:59.125Z,14.10
2018-04-02T19:47:27.369Z,14.20
2018-04-02T19:49:54.845Z,14.20
2018-04-02T19:52:23.370Z,14.10
2018-04-02T19:54:50.845Z,14.10
2018-04-02T19:57:18.334Z,14.00
2018-04-02T19:59:45.859Z,13.90
2018-04-02T20:02:13.357Z,13.80
2018-04-02T20:04:41.601Z,13.50
2018-04-02T20:07:09.186Z,13.50
2018-04-02T20:09:37.722Z,13.50
2018-04-02T20:12:05.217Z,13.50
2018-04-02T20:14:32.690Z,13.60
2018-04-02T20:17:00.935Z,13.70
2018-04-02T20:19:28.436Z,13.70
2018-04-02T20:21:55.913Z,13.70
2018-04-02T20:24:23.436Z,13.80
2018-04-02T20:26:51.676Z,13.70
2018-04-02T20:29:19.173Z,13.70
2018-04-02T20:31:47.413Z,13.70
2018-04-02T20:34:14.901Z,13.70
2018-04-02T20:36:43.161Z,13.70
2018-04-02T20:39:10.642Z,13.70
2018-04-02T20:41:38.908Z,13.70
2018-04-02T20:44:07.154Z,13.80
2018-04-02T20:46:34.718Z,13.80
2018-04-02T20:49:02.218Z,13.70
2018-04-02T20:51:29.718Z,13.70
2018-04-02T20:53:57.250Z,13.70
2018-04-02T20:56:24.772Z,13.70
2018-04-02T20:58:53.014Z,13.60
2018-04-02T21:01:20.509Z,13.60
2018-04-02T21:03:48.770Z,13.50
2018-04-02T21:06:16.342Z,13.50
2018-04-02T21:08:44.593Z,13.50
2018-04-02T21:11:12.073Z,13.50
2018-04-02T21:13:40.329Z,13.40
2018-04-02T21:16:09.309Z,13.40
2018-04-02T21:18:36.844Z,13.40
2018-04-02T21:21:04.336Z,13.30
2018-04-02T21:23:33.322Z,13.00
2018-04-02T21:26:00.812Z,13.00
2018-04-02T21:28:29.087Z,12.70
2018-04-02T21:30:56.569Z,12.80
2018-04-02T21:33:24.093Z,12.60
2018-04-02T21:35:52.349Z,12.30
2018-04-02T21:38:19.841Z,12.30
2018-04-02T21:40:48.081Z,12.10
2018-04-02T21:43:15.583Z,12.10
2018-04-02T21:45:43.122Z,12.10
2018-04-02T21:48:11.365Z,12.00
2018-04-02T21:50:39.080Z,12.00
2018-04-02T21:53:06.654Z,11.90
2018-04-02T21:55:34.177Z,11.90
2018-04-02T21:58:02.430Z,11.80
2018-04-02T22:00:29.922Z,11.80
2018-04-02T22:02:57.425Z,11.60
2018-04-02T22:05:24.897Z,11.40
2018-04-02T22:07:52.390Z,11.40
2018-04-02T22:10:20.637Z,11.40
2018-04-02T22:12:48.129Z,11.40
2018-04-02T22:15:15.673Z,11.40
2018-04-02T22:17:43.921Z,11.20
2018-04-02T22:20:11.417Z,11.20
2018-04-02T22:22:39.718Z,11.10
2018-04-02T22:25:07.244Z,11.10
2018-04-02T22:27:35.497Z,10.90
2018-04-02T22:30:02.982Z,10.90
2018-04-02T22:32:31.246Z,10.70
2018-04-02T22:34:59.525Z,10.60
2018-04-02T22:37:27.849Z,10.40
2018-04-02T22:39:55.346Z,10.30
2018-04-02T22:42:22.821Z,10.30
2018-04-02T22:44:51.078Z,10.10
2018-04-02T22:47:18.549Z,10.10
2018-04-02T22:49:46.825Z,10.10
2018-04-02T22:52:15.070Z,10.20
2018-04-02T22:54:42.545Z,10.20
2018-04-02T22:57:10.036Z,10.40
2018-04-02T22:59:37.513Z,10.40
2018-04-02T23:02:05.019Z,10.40
2018-04-02T23:04:32.495Z,10.40
2018-04-02T23:07:00.737Z,10.20
2018-04-02T23:09:28.993Z,10.20
2018-04-02T23:11:56.489Z,10.20
2018-04-02T23:14:24.764Z,10.40
2018-04-02T23:16:53.042Z,10.30
2018-04-02T23:19:21.290Z,10.30
2018-04-02T23:21:48.782Z,10.30
2018-04-02T23:24:17.298Z,10.10
2018-04-02T23:26:44.797Z,10.10
2018-04-02T23:29:12.285Z,10.10
2018-04-02T23:31:40.526Z,10.00
2018-04-02T23:34:08.017Z,10.00
2018-04-02T23:36:36.256Z,9.90
2018-04-02T23:39:03.834Z,9.90
2018-04-02T23:41:31.306Z,9.80
2018-04-02T23:43:59.562Z,9.80
2018-04-02T23:46:27.886Z,9.80
2018-04-02T23:48:55.366Z,9.80
2018-04-02T23:51:22.853Z,9.80
2018-04-02T23:53:51.828Z,9.70
2018-04-02T23:56:19.317Z,9.70
2018-04-02T23:58:47.554Z,9.60
